Birmingham-Shuttlesworth International Airport Birmingham US
ICAO: KBHM
IATA: BHM
Category: Large
Scheduled Services: Yes

Elevation: 650 ft
TransAlt. 18000 ft.

Airport Communications:
APP/DEP:123.8
ATIS:119.4
CLNC DEL:125.675
GND:121.7
ARNG OPS:38.7
ANG COMD POST:28.73
ANNISTON RDO:122.2
TWR:119.9
UNICOM:122.95

KBHM Zoom In..

If you have problems with the map follow the link
https://www.worldairports.se/pages/airport.php?
ICAO=KBHM

Runways:

(A) RW 06 length 11998 ft width 150 ft
ILS 110.30 / hdg 58

(B) RW 18 length 7099 ft width 150 ft
LOC 111.30 / hdg 183

(C) RW 24 length 11998 ft width 150 ft
ILS 109.50 / hdg 238

(D) RW 36 length 7099 ft width 150 ft
LOC 111.30 / hdg 3

Location; KBHM
Day. 20 / Time. 21.29 Zulu
* Altimeter: 29.95
* Temperature: 14° c. 57.2°f.
* Wind from: 130° Speed 04 kn.
Dewpoint: 13° c.
Visibility: 1 Statute Miles.
Clouds: Overcast 700 ft.
Conditions: Mist.Conditions: Thunderstorm.

KBHM 202129Z 13004KT 1SM +TSRA BR OVC007CB 14/13 A2995 RMK AO2 SFC VIS 1 3/4 LTG DSNT ALQDS TSB22 OCNL LTGIC SW TS SW MOV NE P0003 T01390133


Wind From 130°
Speed 04 kn.

 
 
jpsmedia.com for Web Design worldairports.se 2019   terms of use